Station Historical Data
Daily Summary for September 5, 2017 Units:  English    Metric   Both
« Previous Day
Next Day »
Daily Weekly Monthly Yearly Custom
  High: Low: Average:
Temperature: 87.1 °F 65.7 °F 73.8 °F
Dew Point: 70.7 °F 63.0 °F 66.5 °F
Humidity: 94% 55% 80%
Wind Speed: 2.0mph 0.0mph 0mph
Wind Gust: 5.0mph - -
Wind- - WNW
Pressure: 30.02 in 29.84 in -
Precipitation: 0.69 in    
Historical Graphs
 
 
Tabular Data for September 5, 2017
Time Temperature Dew Point Pressure Wind Wind Speed Wind Gust Humidity Rainfall Rate (Hourly) solar Conditions
00:00 70.3 °F 65.2 °F 30.01 in Calm     84% 0.00 in WeatherDisplay:10.37 W/m2 CLR
00:10 70.2 °F 65.1 °F 30.02 in Calm     84% 0.00 in WeatherDisplay:10.37 W/m2 CLR
00:15 70.2 °F 65.1 °F 30.02 in Calm     84% 0.00 in WeatherDisplay:10.37 W/m2 CLR
00:20 70.1 °F 65.0 °F 30.02 in Calm     84% 0.00 in WeatherDisplay:10.37 W/m2 CLR
00:25 70.0 °F 64.9 °F 30.02 in Calm     84% 0.00 in WeatherDisplay:10.37 W/m2 CLR
00:30 70.0 °F 64.9 °F 30.02 in Calm     84% 0.00 in WeatherDisplay:10.37 W/m2 CLR
00:35 70.0 °F 65.3 °F 30.02 in Calm     85% 0.00 in WeatherDisplay:10.37 W/m2 CLR
00:40 69.9 °F 65.2 °F 30.02 in Calm     85% 0.00 in WeatherDisplay:10.37 W/m2 CLR
00:45 69.8 °F 65.1 °F 30.02 in Calm     85% 0.00 in WeatherDisplay:10.37 W/m2 CLR
00:50 69.8 °F 65.1 °F 30.02 in Calm     85% 0.00 in WeatherDisplay:10.37 W/m2 CLR
00:55 69.7 °F 65.0 °F 30.02 in Calm     85% 0.00 in WeatherDisplay:10.37 W/m2 CLR
01:00 69.7 °F 65.0 °F 30.01 in Calm     85% 0.00 in WeatherDisplay:10.37 W/m2 CLR
01:05 69.7 °F 65.0 °F 30.02 in Calm     85% 0.00 in WeatherDisplay:10.37 W/m2 CLR
01:10 69.7 °F 65.0 °F 30.02 in Calm     85% 0.00 in WeatherDisplay:10.37 W/m2 CLR
01:15 69.6 °F 64.9 °F 30.01 in Calm     85% 0.00 in WeatherDisplay:10.37 W/m2 CLR
01:20 69.6 °F 65.2 °F 30.01 in Calm     86% 0.00 in WeatherDisplay:10.37 W/m2 CLR
01:25 69.6 °F 65.2 °F 30.01 in Calm     86% 0.00 in WeatherDisplay:10.37 W/m2 CLR
01:35 69.4 °F 65.0 °F 30.01 in Calm     86% 0.00 in WeatherDisplay:10.37 W/m2 CLR
01:40 69.4 °F 65.0 °F 30.01 in Calm     86% 0.00 in WeatherDisplay:10.37 W/m2 CLR
01:45 69.3 °F 64.9 °F 30.01 in Calm     86% 0.00 in WeatherDisplay:10.37 W/m2 CLR
01:50 69.2 °F 64.9 °F 30.01 in Calm     86% 0.00 in WeatherDisplay:10.37 W/m2 CLR
01:55 69.2 °F 64.8 °F 30.01 in Calm     86% 0.00 in WeatherDisplay:10.37 W/m2 CLR
02:00 69.1 °F 64.7 °F 30.01 in Calm     86% 0.00 in WeatherDisplay:10.37 W/m2 CLR
02:05 69.1 °F 65.1 °F 30.01 in Calm     87% 0.00 in WeatherDisplay:10.37 W/m2 CLR
02:10 69.1 °F 65.1 °F 30.01 in Calm     87% 0.00 in WeatherDisplay:10.37 W/m2 CLR
02:15 69.0 °F 65.0 °F 30.01 in Calm     87% 0.00 in WeatherDisplay:10.37 W/m2 CLR
02:20 69.0 °F 65.0 °F 30.00 in Calm     87% 0.00 in WeatherDisplay:10.37 W/m2 CLR
02:25 69.0 °F 65.0 °F 30.00 in Calm     87% 0.00 in WeatherDisplay:10.37 W/m2 CLR
02:30 68.9 °F 64.9 °F 30.00 in Calm     87% 0.00 in WeatherDisplay:10.37 W/m2 CLR
02:35 68.9 °F 64.9 °F 30.01 in Calm     87% 0.00 in WeatherDisplay:10.37 W/m2 CLR
02:40 68.8 °F 64.8 °F 30.01 in Calm     87% 0.00 in WeatherDisplay:10.37 W/m2 CLR
02:45 68.8 °F 64.8 °F 30.00 in Calm     87% 0.00 in WeatherDisplay:10.37 W/m2 CLR
02:50 68.8 °F 64.8 °F 30.00 in Calm     87% 0.00 in WeatherDisplay:10.37 W/m2 CLR
02:55 68.8 °F 64.8 °F 30.00 in Calm     87% 0.00 in WeatherDisplay:10.37 W/m2 CLR
03:00 68.7 °F 64.7 °F 30.00 in Calm     87% 0.00 in WeatherDisplay:10.37 W/m2 CLR
03:05 68.7 °F 65.0 °F 30.01 in Calm     88% 0.00 in WeatherDisplay:10.37 W/m2 CLR
03:10 68.6 °F 64.9 °F 30.01 in Calm     88% 0.00 in WeatherDisplay:10.37 W/m2 CLR
03:15 68.7 °F 65.0 °F 30.01 in Calm     88% 0.00 in WeatherDisplay:10.37 W/m2 CLR
03:20 68.6 °F 64.9 °F 30.00 in Calm     88% 0.00 in WeatherDisplay:10.37 W/m2 SCT
03:25 68.7 °F 65.0 °F 30.00 in Calm     88% 0.00 in WeatherDisplay:10.37 W/m2 SCT
03:30 68.7 °F 65.0 °F 30.00 in Calm     88% 0.00 in WeatherDisplay:10.37 W/m2 SCT
03:35 68.7 °F 65.0 °F 30.00 in Calm     88% 0.00 in WeatherDisplay:10.37 W/m2 SCT
03:40 68.7 °F 65.0 °F 30.01 in Calm     88% 0.00 in WeatherDisplay:10.37 W/m2 SCT
03:45 68.6 °F 64.9 °F 30.00 in Calm     88% 0.00 in WeatherDisplay:10.37 W/m2 SCT
03:50 68.6 °F 64.9 °F 30.00 in Calm     88% 0.00 in WeatherDisplay:10.37 W/m2 SCT
03:55 68.6 °F 64.9 °F 30.00 in Calm     88% 0.00 in WeatherDisplay:10.37 W/m2 SCT
04:00 68.6 °F 64.9 °F 30.00 in Calm     88% 0.00 in WeatherDisplay:10.37 W/m2 SCT
04:10 68.5 °F 64.8 °F 30.00 in Calm     88% 0.00 in WeatherDisplay:10.37 W/m2 SCT
04:15 68.3 °F 64.6 °F 30.00 in Calm     88% 0.00 in WeatherDisplay:10.37 W/m2 SCT
04:25 68.1 °F 64.1 °F 30.00 in Calm     87% 0.00 in WeatherDisplay:10.37 W/m2 OVC
04:30 68.0 °F 64.3 °F 30.00 in Calm     88% 0.00 in WeatherDisplay:10.37 W/m2 OVC
04:35 67.9 °F 64.2 °F 30.00 in Calm     88% 0.00 in WeatherDisplay:10.37 W/m2 OVC
04:40 67.9 °F 64.2 °F 29.99 in Calm     88% 0.00 in WeatherDisplay:10.37 W/m2 OVC
04:45 67.7 °F 64.0 °F 29.99 in Calm     88% 0.00 in WeatherDisplay:10.37 W/m2 OVC
04:50 67.7 °F 64.0 °F 29.99 in Calm     88% 0.00 in WeatherDisplay:10.37 W/m2 OVC
04:55 67.5 °F 63.8 °F 29.99 in Calm     88% 0.00 in WeatherDisplay:10.37 W/m2 OVC
05:00 67.5 °F 63.8 °F 29.99 in Calm     88% 0.00 in WeatherDisplay:10.37 W/m2 OVC
05:10 67.3 °F 63.9 °F 29.99 in Calm     89% 0.00 in WeatherDisplay:10.37 W/m2 OVC
05:15 67.2 °F 63.8 °F 30.00 in Calm     89% 0.00 in WeatherDisplay:10.37 W/m2 OVC
05:20 67.1 °F 63.7 °F 29.99 in Calm     89% 0.00 in WeatherDisplay:10.37 W/m2 CLR
05:25 67.1 °F 63.7 °F 30.00 in Calm     89% 0.00 in WeatherDisplay:10.37 W/m2 CLR
05:30 67.0 °F 63.6 °F 30.00 in Calm     89% 0.00 in WeatherDisplay:10.37 W/m2 CLR
05:35 66.9 °F 63.6 °F 30.00 in Calm     89% 0.00 in WeatherDisplay:10.37 W/m2 CLR
05:40 66.8 °F 63.5 °F 30.00 in Calm     89% 0.00 in WeatherDisplay:10.37 W/m2 CLR
05:45 66.7 °F 63.4 °F 30.00 in Calm     89% 0.00 in WeatherDisplay:10.37 W/m2 CLR
05:50 66.7 °F 63.3 °F 30.00 in Calm     89% 0.00 in WeatherDisplay:10.37 W/m2 CLR
05:55 66.6 °F 63.6 °F 30.00 in Calm     90% 0.00 in WeatherDisplay:10.37 W/m2 CLR
06:00 66.5 °F 63.5 °F 29.99 in Calm     90% 0.00 in WeatherDisplay:10.37 W/m2 CLR
06:05 66.5 °F 63.5 °F 29.99 in Calm     90% 0.00 in WeatherDisplay:10.37 W/m2 CLR
06:10 66.4 °F 63.4 °F 29.99 in Calm     90% 0.00 in WeatherDisplay:10.37 W/m2 CLR
06:15 66.4 °F 63.4 °F 29.99 in Calm     90% 0.00 in WeatherDisplay:10.37 W/m2 CLR
06:20 66.4 °F 63.4 °F 29.99 in Calm     90% 0.00 in WeatherDisplay:10.37 W/m2 FEW
06:25 66.3 °F 63.3 °F 29.99 in Calm     90% 0.00 in WeatherDisplay:10.37 W/m2 FEW
06:30 66.2 °F 63.2 °F 29.99 in Calm     90% 0.00 in WeatherDisplay:10.37 W/m2 FEW
06:35 66.3 °F 63.3 °F 29.99 in Calm     90% 0.00 in WeatherDisplay:10.37 W/m2 FEW
06:40 66.3 °F 63.3 °F 29.99 in Calm     90% 0.00 in WeatherDisplay:10.37 W/m2 FEW
06:45 66.3 °F 63.6 °F 29.99 in Calm     91% 0.00 in WeatherDisplay:10.37 W/m2 FEW
06:50 66.3 °F 63.6 °F 29.99 in Calm     91% 0.00 in WeatherDisplay:10.37 W/m2 FEW
06:55 66.3 °F 63.6 °F 29.99 in Calm     91% 0.00 in WeatherDisplay:10.37 W/m2 FEW
07:00 66.3 °F 63.6 °F 29.99 in Calm     91% 0.00 in WeatherDisplay:10.37 W/m2 FEW
07:05 66.2 °F 63.5 °F 29.99 in Calm     91% 0.00 in WeatherDisplay:10.37 W/m2 FEW
07:10 66.2 °F 63.5 °F 29.99 in Calm     91% 0.00 in WeatherDisplay:10.37 W/m2 FEW
07:15 66.2 °F 63.5 °F 29.99 in Calm     91% 0.00 in WeatherDisplay:10.37 W/m2 FEW
07:20 66.1 °F 63.4 °F 30.00 in Calm     91% 0.00 in WeatherDisplay:10.37 W/m2 FEW
07:25 66.1 °F 63.4 °F 30.00 in Calm     91% 0.00 in WeatherDisplay:10.37 W/m2 FEW
07:30 65.9 °F 63.2 °F 30.00 in Calm     91% 0.00 in WeatherDisplay:10.37 W/m2 FEW
07:35 65.8 °F 63.1 °F 30.00 in Calm     91% 0.00 in WeatherDisplay:10.37 W/m2 FEW
07:40 65.7 °F 63.0 °F 30.00 in Calm     91% 0.00 in WeatherDisplay:10.37 W/m2 FEW
07:45 65.7 °F 63.0 °F 30.00 in Calm     91% 0.00 in WeatherDisplay:10.37 W/m2 FEW
07:50 65.7 °F 63.0 °F 30.00 in Calm     91% 0.00 in WeatherDisplay:10.37 W/m2 FEW
07:55 65.8 °F 63.1 °F 30.00 in Calm     91% 0.00 in WeatherDisplay:10.37 W/m2 FEW
08:00 65.9 °F 63.2 °F 30.00 in Calm     91% 0.00 in WeatherDisplay:10.37 W/m2 FEW
08:05 66.3 °F 63.9 °F 30.00 in Calm     92% 0.00 in WeatherDisplay:10.37 W/m2 FEW
08:10 66.6 °F 64.2 °F 30.00 in Calm     92% 0.00 in WeatherDisplay:10.37 W/m2 FEW
08:15 66.8 °F 64.1 °F 30.00 in Calm     91% 0.00 in WeatherDisplay:10.37 W/m2 FEW
08:20 67.1 °F 64.4 °F 30.00 in Calm     91% 0.00 in WeatherDisplay:10.37 W/m2 SCT
08:25 67.6 °F 64.9 °F 30.00 in Calm     91% 0.00 in WeatherDisplay:10.37 W/m2 SCT
08:30 68.0 °F 65.3 °F 30.00 in Calm     91% 0.00 in WeatherDisplay:10.37 W/m2 SCT
08:40 68.6 °F 65.5 °F 30.00 in Calm     90% 0.00 in WeatherDisplay:10.37 W/m2 SCT
08:45 68.8 °F 65.7 °F 30.00 in Calm     90% 0.00 in WeatherDisplay:10.37 W/m2 SCT
08:50 69.1 °F 66.0 °F 30.00 in Calm     90% 0.00 in WeatherDisplay:10.37 W/m2 SCT
08:55 69.4 °F 66.0 °F 30.00 in Calm     89% 0.00 in WeatherDisplay:10.37 W/m2 SCT
09:00 69.6 °F 66.2 °F 30.00 in Calm     89% 0.00 in WeatherDisplay:10.37 W/m2 SCT
09:05 70.0 °F 66.6 °F 29.99 in Calm     89% 0.00 in WeatherDisplay:10.37 W/m2 SCT
09:10 70.3 °F 66.6 °F 29.99 in Calm     88% 0.00 in WeatherDisplay:10.37 W/m2 SCT
09:15 70.6 °F 66.9 °F 29.99 in Calm     88% 0.00 in WeatherDisplay:10.37 W/m2 SCT
09:20 70.9 °F 66.9 °F 30.00 in Calm     87% 0.00 in WeatherDisplay:10.37 W/m2 SCT
09:25 71.3 °F 66.9 °F 30.00 in Calm     86% 0.00 in WeatherDisplay:10.37 W/m2 SCT
09:30 71.7 °F 66.9 °F 30.00 in Calm     85% 0.00 in WeatherDisplay:10.37 W/m2 SCT
09:35 72.1 °F 67.0 °F 30.00 in Calm     84% 0.00 in WeatherDisplay:10.37 W/m2 SCT
09:40 72.8 °F 67.3 °F 30.00 in Calm     83% 0.00 in WeatherDisplay:10.37 W/m2 SCT
09:45 73.5 °F 67.7 °F 30.00 in Calm     82% 0.00 in WeatherDisplay:10.37 W/m2 SCT
09:50 74.0 °F 67.8 °F 30.00 in Calm     81% 0.00 in WeatherDisplay:10.37 W/m2 SCT
09:55 74.5 °F 67.5 °F 30.00 in Calm     79% 0.00 in WeatherDisplay:10.37 W/m2 SCT
10:00 74.9 °F 67.6 °F 30.00 in Calm     78% 0.00 in WeatherDisplay:10.37 W/m2 SCT
10:10 75.7 °F 68.0 °F 30.00 in Calm     77% 0.00 in WeatherDisplay:10.37 W/m2 SCT
10:15 76.1 °F 67.6 °F 30.00 in Calm     75% 0.00 in WeatherDisplay:10.37 W/m2 SCT
10:20 76.4 °F 67.1 °F 30.00 in Calm     73% 0.00 in WeatherDisplay:10.37 W/m2 SCT
10:25 76.7 °F 67.0 °F 30.00 in Calm   1.0 mph 72% 0.00 in WeatherDisplay:10.37 W/m2 SCT
10:30 77.0 °F 67.3 °F 30.00 in WNW 1.0 mph 2.0 mph 72% 0.00 in WeatherDisplay:10.37 W/m2 SCT
10:35 77.4 °F 66.8 °F 30.00 in Calm   2.0 mph 70% 0.00 in WeatherDisplay:10.37 W/m2 SCT
10:40 77.7 °F 67.5 °F 30.00 in Calm   1.0 mph 71% 0.00 in WeatherDisplay:10.37 W/m2 SCT
10:45 78.1 °F 67.1 °F 29.99 in Calm   2.0 mph 69% 0.00 in WeatherDisplay:10.37 W/m2 SCT
10:50 78.5 °F 67.1 °F 30.00 in Calm     68% 0.00 in WeatherDisplay:10.37 W/m2 SCT
10:55 78.9 °F 67.9 °F 30.00 in Calm     69% 0.00 in WeatherDisplay:10.37 W/m2 SCT
11:00 79.2 °F 67.7 °F 29.99 in Calm   1.0 mph 68% 0.00 in WeatherDisplay:10.37 W/m2 SCT
11:10 79.7 °F 67.8 °F 29.99 in Calm   1.0 mph 67% 0.00 in WeatherDisplay:10.37 W/m2 SCT
11:15 80.1 °F 68.2 °F 29.99 in Calm   1.0 mph 67% 0.00 in WeatherDisplay:10.37 W/m2 SCT
11:20 80.5 °F 67.2 °F 29.99 in Calm   2.0 mph 64% 0.00 in WeatherDisplay:10.37 W/m2 CLR
11:25 80.5 °F 67.6 °F 29.99 in Calm   2.0 mph 65% 0.00 in WeatherDisplay:10.37 W/m2 CLR
11:30 80.5 °F 68.1 °F 29.99 in Calm   3.0 mph 66% 0.00 in WeatherDisplay:10.37 W/m2 CLR
11:35 80.7 °F 68.7 °F 29.98 in Calm   2.0 mph 67% 0.00 in WeatherDisplay:10.37 W/m2 CLR
11:40 81.1 °F 68.2 °F 29.98 in Calm   3.0 mph 65% 0.00 in WeatherDisplay:10.37 W/m2 CLR
11:45 81.1 °F 67.8 °F 29.98 in Calm   3.0 mph 64% 0.00 in WeatherDisplay:10.37 W/m2 CLR
11:50 81.0 °F 68.6 °F 29.98 in Calm   5.0 mph 66% 0.00 in WeatherDisplay:10.37 W/m2 CLR
11:55 81.2 °F 68.3 °F 29.98 in Calm   2.0 mph 65% 0.00 in WeatherDisplay:10.37 W/m2 CLR
12:00 81.0 °F 69.0 °F 29.98 in Calm   2.0 mph 67% 0.00 in WeatherDisplay:10.37 W/m2 CLR
12:05 81.3 °F 68.8 °F 29.98 in Calm   2.0 mph 66% 0.00 in WeatherDisplay:10.37 W/m2 CLR
12:10 81.9 °F 69.5 °F 29.98 in Calm   1.0 mph 66% 0.00 in WeatherDisplay:10.37 W/m2 CLR
12:15 82.5 °F 69.5 °F 29.97 in NW 1.0 mph 3.0 mph 65% 0.00 in WeatherDisplay:10.37 W/m2 CLR
12:20 82.8 °F 69.3 °F 29.97 in Calm   1.0 mph 64% 0.00 in WeatherDisplay:10.37 W/m2 CLR
12:25 83.2 °F 69.3 °F 29.97 in Calm   2.0 mph 63% 0.00 in WeatherDisplay:10.37 W/m2 CLR
12:30 83.8 °F 70.4 °F 29.97 in Calm   1.0 mph 64% 0.00 in WeatherDisplay:10.37 W/m2 CLR
12:35 84.4 °F 70.0 °F 29.96 in West 2.0 mph 5.0 mph 62% 0.00 in WeatherDisplay:10.37 W/m2 CLR
12:40 84.2 °F 70.2 °F 29.96 in Calm   2.0 mph 63% 0.00 in WeatherDisplay:10.37 W/m2 CLR
12:45 84.1 °F 69.7 °F 29.96 in WSW 1.0 mph 3.0 mph 62% 0.00 in WeatherDisplay:10.37 W/m2 CLR
12:55 82.9 °F 69.4 °F 29.95 in Calm   2.0 mph 64% 0.00 in WeatherDisplay:10.37 W/m2 CLR
13:00 82.7 °F 68.8 °F 29.95 in Calm   3.0 mph 63% 0.00 in WeatherDisplay:10.37 W/m2 CLR
13:05 82.5 °F 69.5 °F 29.95 in Calm     65% 0.00 in WeatherDisplay:10.37 W/m2 CLR
13:10 81.9 °F 69.0 °F 29.95 in Calm   2.0 mph 65% 0.00 in WeatherDisplay:10.37 W/m2 CLR
13:15 81.4 °F 69.4 °F 29.95 in Calm   2.0 mph 67% 0.00 in WeatherDisplay:10.37 W/m2 CLR
13:20 81.5 °F 69.0 °F 29.95 in WSW 1.0 mph 2.0 mph 66% 0.00 in WeatherDisplay:10.37 W/m2 CLR
13:25 82.3 °F 68.9 °F 29.94 in West 1.0 mph 3.0 mph 64% 0.00 in WeatherDisplay:10.37 W/m2 CLR
13:30 83.4 °F 69.9 °F 29.94 in Calm   2.0 mph 64% 0.00 in WeatherDisplay:10.37 W/m2 CLR
13:35 84.6 °F 68.7 °F 29.94 in Calm   5.0 mph 59% 0.00 in WeatherDisplay:10.37 W/m2 CLR
13:45 85.4 °F 68.4 °F 29.93 in NW 1.0 mph 2.0 mph 57% 0.00 in WeatherDisplay:10.37 W/m2 CLR
13:50 85.9 °F 69.4 °F 29.94 in Calm   1.0 mph 58% 0.00 in WeatherDisplay:10.37 W/m2 CLR
13:55 86.3 °F 68.2 °F 29.93 in Calm   2.0 mph 55% 0.00 in WeatherDisplay:10.37 W/m2 CLR
14:00 86.6 °F 68.5 °F 29.93 in Calm   3.0 mph 55% 0.00 in WeatherDisplay:10.37 W/m2 CLR
14:05 86.7 °F 69.1 °F 29.93 in Calm   1.0 mph 56% 0.00 in WeatherDisplay:10.37 W/m2 CLR
14:10 87.1 °F 70.5 °F 29.93 in WNW 1.0 mph 2.0 mph 58% 0.00 in WeatherDisplay:10.37 W/m2 CLR
14:15 86.9 °F 68.8 °F 29.92 in Calm   1.0 mph 55% 0.00 in WeatherDisplay:10.37 W/m2 CLR
14:20 86.1 °F 70.1 °F 29.92 in Calm   2.0 mph 59% 0.00 in WeatherDisplay:10.37 W/m2 CLR
14:25 85.4 °F 69.4 °F 29.92 in Calm   2.0 mph 59% 0.00 in WeatherDisplay:10.37 W/m2 CLR
14:30 85.2 °F 69.7 °F 29.92 in Calm   2.0 mph 60% 0.00 in WeatherDisplay:10.37 W/m2 CLR
14:35 85.7 °F 70.7 °F 29.91 in Calm   1.0 mph 61% 0.00 in WeatherDisplay:10.37 W/m2 CLR
14:40 85.7 °F 69.2 °F 29.91 in Calm   1.0 mph 58% 0.00 in WeatherDisplay:10.37 W/m2 CLR
14:45 85.8 °F 69.8 °F 29.90 in Calm   1.0 mph 59% 0.00 in WeatherDisplay:10.37 W/m2 CLR
14:50 85.8 °F 69.3 °F 29.90 in Calm   1.0 mph 58% 0.00 in WeatherDisplay:10.37 W/m2 CLR
14:55 85.7 °F 67.6 °F 29.90 in Calm   2.0 mph 55% 0.00 in WeatherDisplay:10.37 W/m2 CLR
15:00 85.4 °F 68.9 °F 29.89 in Calm     58% 0.00 in WeatherDisplay:10.37 W/m2 CLR
15:05 85.0 °F 69.1 °F 29.89 in Calm   1.0 mph 59% 0.00 in WeatherDisplay:10.37 W/m2 CLR
15:10 85.1 °F 68.6 °F 29.89 in Calm   3.0 mph 58% 0.00 in WeatherDisplay:10.37 W/m2 CLR
15:15 85.1 °F 68.7 °F 29.89 in Calm   1.0 mph 58% 0.00 in WeatherDisplay:10.37 W/m2 CLR
15:25 84.7 °F 69.3 °F 29.88 in Calm   1.0 mph 60% 0.00 in WeatherDisplay:10.37 W/m2 BKN
15:30 84.8 °F 68.9 °F 29.88 in Calm   1.0 mph 59% 0.00 in WeatherDisplay:10.37 W/m2 BKN
15:35 84.8 °F 69.4 °F 29.88 in Calm   1.0 mph 60% 0.00 in WeatherDisplay:10.37 W/m2 BKN
15:40 84.9 °F 70.4 °F 29.88 in Calm   1.0 mph 62% 0.00 in WeatherDisplay:10.37 W/m2 BKN
15:45 85.0 °F 69.6 °F 29.88 in Calm   1.0 mph 60% 0.00 in WeatherDisplay:10.37 W/m2 BKN
15:50 84.9 °F 68.9 °F 29.88 in Calm   2.0 mph 59% 0.00 in WeatherDisplay:10.37 W/m2 BKN
15:55 84.8 °F 69.3 °F 29.88 in Calm   1.0 mph 60% 0.00 in WeatherDisplay:10.37 W/m2 BKN
16:00 84.8 °F 69.4 °F 29.88 in Calm   2.0 mph 60% 0.00 in WeatherDisplay:10.37 W/m2 BKN
16:05 84.8 °F 68.4 °F 29.88 in Calm   2.0 mph 58% 0.00 in WeatherDisplay:10.37 W/m2 BKN
16:10 84.3 °F 67.9 °F 29.88 in Calm   1.0 mph 58% 0.00 in WeatherDisplay:10.37 W/m2 BKN
16:15 84.2 °F 68.8 °F 29.87 in Calm   1.0 mph 60% 0.00 in WeatherDisplay:10.37 W/m2 BKN
16:20 84.4 °F 68.0 °F 29.87 in Calm   1.0 mph 58% 0.00 in WeatherDisplay:10.37 W/m2 BKN
16:25 84.3 °F 69.4 °F 29.87 in Calm   1.0 mph 61% 0.00 in WeatherDisplay:10.37 W/m2 BKN
16:30 84.2 °F 69.8 °F 29.86 in Calm     62% 0.00 in WeatherDisplay:10.37 W/m2 BKN
16:35 84.2 °F 69.8 °F 29.86 in Calm   2.0 mph 62% 0.00 in WeatherDisplay:10.37 W/m2 BKN
16:40 84.3 °F 70.3 °F 29.86 in Calm   1.0 mph 63% 0.00 in WeatherDisplay:10.37 W/m2 BKN
16:45 84.2 °F 70.2 °F 29.85 in Calm   1.0 mph 63% 0.00 in WeatherDisplay:10.37 W/m2 BKN
16:50 84.0 °F 70.0 °F 29.85 in Calm   1.0 mph 63% 0.00 in WeatherDisplay:10.37 W/m2 BKN
16:55 83.9 °F 70.4 °F 29.85 in NNW 1.0 mph 3.0 mph 64% 0.00 in WeatherDisplay:10.37 W/m2 BKN
17:00 84.1 °F 70.6 °F 29.85 in Calm   2.0 mph 64% 0.00 in WeatherDisplay:10.37 W/m2 BKN
17:05 84.1 °F 69.7 °F 29.84 in Calm   3.0 mph 62% 0.00 in WeatherDisplay:10.37 W/m2 BKN
17:10 84.1 °F 70.6 °F 29.84 in Calm   3.0 mph 64% 0.00 in WeatherDisplay:10.37 W/m2 BKN
17:15 84.1 °F 70.1 °F 29.84 in Calm   2.0 mph 63% 0.00 in WeatherDisplay:10.37 W/m2 BKN
17:20 84.1 °F 70.6 °F 29.84 in Calm   1.0 mph 64% 0.00 in WeatherDisplay:10.37 W/m2 BKN
17:25 83.8 °F 70.3 °F 29.84 in Calm   2.0 mph 64% 0.00 in WeatherDisplay:10.37 W/m2 BKN
17:30 83.4 °F 69.5 °F 29.85 in Calm   2.0 mph 63% 0.00 in WeatherDisplay:10.37 W/m2 BKN
17:40 82.8 °F 69.8 °F 29.85 in Calm   1.0 mph 65% 0.00 in WeatherDisplay:10.37 W/m2 BKN
17:45 82.5 °F 69.9 °F 29.85 in Calm   1.0 mph 66% 0.00 in WeatherDisplay:10.37 W/m2 BKN
17:50 82.1 °F 70.1 °F 29.84 in Calm   2.0 mph 67% 0.00 in WeatherDisplay:10.37 W/m2 BKN
17:55 81.9 °F 69.9 °F 29.85 in Calm   1.0 mph 67% 0.00 in WeatherDisplay:10.37 W/m2 BKN
18:00 81.7 °F 70.1 °F 29.85 in Calm   1.0 mph 68% 0.00 in WeatherDisplay:10.37 W/m2 BKN
18:05 81.4 °F 69.8 °F 29.85 in Calm   1.0 mph 68% 0.00 in WeatherDisplay:10.37 W/m2 BKN
18:10 81.0 °F 69.0 °F 29.86 in Calm   3.0 mph 67% 0.00 in WeatherDisplay:10.37 W/m2 BKN
18:20 80.6 °F 69.1 °F 29.86 in Calm   1.0 mph 68% 0.00 in WeatherDisplay:10.37 W/m2 BKN
18:25 80.5 °F 69.0 °F 29.85 in Calm   1.0 mph 68% 0.00 in WeatherDisplay:10.37 W/m2 BKN
18:30 80.3 °F 68.8 °F 29.85 in Calm   5.0 mph 68% 0.00 in WeatherDisplay:10.37 W/m2 BKN
18:35 80.3 °F 69.6 °F 29.85 in Calm   2.0 mph 70% 0.00 in WeatherDisplay:10.37 W/m2 BKN
18:40 80.0 °F 69.4 °F 29.85 in Calm   1.0 mph 70% 0.00 in WeatherDisplay:10.37 W/m2 BKN
18:45 79.8 °F 69.6 °F 29.86 in Calm   1.0 mph 71% 0.00 in WeatherDisplay:10.37 W/m2 BKN
18:50 79.6 °F 69.0 °F 29.86 in Calm   3.0 mph 70% 0.00 in WeatherDisplay:10.37 W/m2 BKN
18:55 79.5 °F 69.3 °F 29.87 in Calm     71% 0.00 in WeatherDisplay:10.37 W/m2 BKN
19:00 79.4 °F 69.1 °F 29.87 in Calm     71% 0.00 in WeatherDisplay:10.37 W/m2 BKN
19:10 79.1 °F 68.5 °F 29.89 in WNW 2.0 mph 5.0 mph 70% 0.00 in WeatherDisplay:10.37 W/m2 BKN
19:15 76.6 °F 68.1 °F 29.91 in Calm   5.0 mph 75% 0.12 in WeatherDisplay:10.37 W/m2 RA
19:20 73.6 °F 67.1 °F 29.91 in Calm   2.0 mph 80% 0.07 in WeatherDisplay:10.37 W/m2 OVC
19:25 71.7 °F 66.2 °F 29.91 in Calm   1.0 mph 83% 0.09 in WeatherDisplay:10.37 W/m2 RA
19:30 70.5 °F 65.8 °F 29.91 in Calm     85% 0.07 in WeatherDisplay:10.37 W/m2 RA
19:40 69.1 °F 65.4 °F 29.92 in Calm   2.0 mph 88% 0.02 in WeatherDisplay:10.37 W/m2 OVC
19:45 68.8 °F 65.4 °F 29.93 in Calm     89% 0.04 in WeatherDisplay:10.37 W/m2 RA
19:50 68.5 °F 65.5 °F 29.92 in Calm     90% 0.01 in WeatherDisplay:10.37 W/m2 OVC
19:55 68.4 °F 65.4 °F 29.91 in Calm     90% 0.01 in WeatherDisplay:10.37 W/m2 OVC
20:00 68.3 °F 65.3 °F 29.91 in Calm     90% 0.01 in WeatherDisplay:10.37 W/m2 RA
20:10 68.2 °F 65.5 °F 29.90 in Calm     91% 0.01 in WeatherDisplay:10.37 W/m2 OVC
20:15 68.3 °F 65.9 °F 29.91 in Calm   1.0 mph 92% 0.00 in WeatherDisplay:10.37 W/m2 OVC
20:20 68.2 °F 65.8 °F 29.90 in Calm     92% 0.00 in WeatherDisplay:10.37 W/m2 OVC
20:25 68.1 °F 65.7 °F 29.91 in Calm     92% 0.01 in WeatherDisplay:10.37 W/m2 RA
20:30 68.0 °F 65.6 °F 29.91 in Calm     92% 0.00 in WeatherDisplay:10.37 W/m2 OVC
20:35 68.0 °F 65.6 °F 29.92 in Calm     92% 0.00 in WeatherDisplay:10.37 W/m2 OVC
20:40 67.9 °F 65.5 °F 29.93 in Calm     92% 0.00 in WeatherDisplay:10.37 W/m2 OVC
20:45 68.0 °F 65.6 °F 29.94 in Calm     92% 0.01 in WeatherDisplay:10.37 W/m2 OVC
20:50 68.0 °F 65.6 °F 29.94 in Calm     92% 0.03 in WeatherDisplay:10.37 W/m2 RA
20:55 68.0 °F 65.6 °F 29.94 in Calm     92% 0.02 in WeatherDisplay:10.37 W/m2 RA
21:00 68.0 °F 65.6 °F 29.94 in Calm     92% 0.03 in WeatherDisplay:10.37 W/m2 RA
21:05 68.0 °F 65.9 °F 29.93 in Calm     93% 0.02 in WeatherDisplay:10.37 W/m2 RA
21:10 68.0 °F 65.9 °F 29.93 in Calm     93% 0.01 in WeatherDisplay:10.37 W/m2 RA
21:15 68.0 °F 65.9 °F 29.93 in Calm     93% 0.00 in WeatherDisplay:10.37 W/m2 OVC
21:20 68.0 °F 65.9 °F 29.93 in Calm     93% 0.01 in WeatherDisplay:10.37 W/m2 OVC
21:30 68.0 °F 65.9 °F 29.92 in Calm   1.0 mph 93% 0.00 in WeatherDisplay:10.37 W/m2 -RA
21:35 68.0 °F 65.9 °F 29.92 in Calm     93% 0.00 in WeatherDisplay:10.37 W/m2 -RA
21:40 67.9 °F 65.8 °F 29.92 in Calm     93% 0.01 in WeatherDisplay:10.37 W/m2 -RA
21:45 67.9 °F 65.8 °F 29.92 in Calm     93% 0.00 in WeatherDisplay:10.37 W/m2 -RA
21:50 67.9 °F 65.8 °F 29.92 in Calm     93% 0.00 in WeatherDisplay:10.37 W/m2 -RA
21:55 67.9 °F 65.8 °F 29.93 in Calm     93% 0.00 in WeatherDisplay:10.37 W/m2 -RA
22:00 67.9 °F 65.8 °F 29.92 in Calm     93% 0.00 in WeatherDisplay:10.37 W/m2 -RA
22:05 67.9 °F 65.8 °F 29.93 in Calm     93% 0.00 in WeatherDisplay:10.37 W/m2 -RA
22:10 67.9 °F 65.8 °F 29.93 in Calm   1.0 mph 93% 0.00 in WeatherDisplay:10.37 W/m2 -RA
22:15 67.9 °F 65.8 °F 29.94 in Calm   1.0 mph 93% 0.00 in WeatherDisplay:10.37 W/m2 -RA
22:20 67.9 °F 65.8 °F 29.94 in Calm     93% 0.00 in WeatherDisplay:10.37 W/m2 -RA
22:25 67.9 °F 65.8 °F 29.93 in Calm     93% 0.00 in WeatherDisplay:10.37 W/m2 -RA
22:30 67.8 °F 65.7 °F 29.93 in Calm     93% 0.00 in WeatherDisplay:10.37 W/m2 -RA
22:40 67.6 °F 65.5 °F 29.93 in Calm     93% 0.00 in WeatherDisplay:10.37 W/m2 -RA
22:45 67.6 °F 65.5 °F 29.92 in Calm     93% 0.00 in WeatherDisplay:10.37 W/m2 -RA
22:50 67.6 °F 65.5 °F 29.92 in Calm     93% 0.00 in WeatherDisplay:10.37 W/m2 OVC
22:55 67.6 °F 65.5 °F 29.92 in Calm     93% 0.00 in WeatherDisplay:10.37 W/m2 OVC
23:00 67.6 °F 65.5 °F 29.92 in Calm     93% 0.00 in WeatherDisplay:10.37 W/m2 OVC
23:05 67.6 °F 65.5 °F 29.92 in Calm     93% 0.00 in WeatherDisplay:10.37 W/m2 OVC
23:10 67.6 °F 65.5 °F 29.92 in Calm     93% 0.00 in WeatherDisplay:10.37 W/m2 OVC
23:15 67.7 °F 65.6 °F 29.91 in Calm     93% 0.00 in WeatherDisplay:10.37 W/m2 OVC
23:20 67.6 °F 65.5 °F 29.91 in Calm     93% 0.00 in WeatherDisplay:10.37 W/m2 SCT
23:30 67.6 °F 65.5 °F 29.91 in Calm     93% 0.00 in WeatherDisplay:10.37 W/m2 BKN
23:35 67.5 °F 65.4 °F 29.91 in Calm     93% 0.00 in WeatherDisplay:10.37 W/m2 BKN
23:40 67.5 °F 65.4 °F 29.92 in Calm     93% 0.00 in WeatherDisplay:10.37 W/m2 BKN
23:45 67.5 °F 65.4 °F 29.92 in Calm     93% 0.00 in WeatherDisplay:10.37 W/m2 BKN
23:50 67.5 °F 65.4 °F 29.93 in Calm     93% 0.00 in WeatherDisplay:10.37 W/m2 BKN
23:55 67.7 °F 65.9 °F 29.93 in Calm     94% 0.00 in WeatherDisplay:10.37 W/m2 BKN
Piedmont Bend
Compliments of Weather Underground - 4 mb